sensor_id;sensor_type;location;lat;lon;timestamp;P1;durP1;ratioP1;P2;durP2;ratioP2
30080;SDS011;16902;50.816;12.828;2024-03-22T00:02:06;6.78;;;4.72;;
30080;SDS011;16902;50.816;12.828;2024-03-22T00:07:07;6.18;;;4.75;;
30080;SDS011;16902;50.816;12.828;2024-03-22T00:12:08;5.63;;;4.57;;
30080;SDS011;16902;50.816;12.828;2024-03-22T00:17:09;8.15;;;5.35;;
30080;SDS011;16902;50.816;12.828;2024-03-22T00:22:10;6.50;;;4.32;;
30080;SDS011;16902;50.816;12.828;2024-03-22T00:27:11;4.47;;;3.33;;
30080;SDS011;16902;50.816;12.828;2024-03-22T00:32:12;5.18;;;3.60;;
30080;SDS011;16902;50.816;12.828;2024-03-22T00:37:13;7.10;;;4.22;;
30080;SDS011;16902;50.816;12.828;2024-03-22T00:42:14;4.88;;;3.70;;
30080;SDS011;16902;50.816;12.828;2024-03-22T00:47:15;5.35;;;4.22;;
30080;SDS011;16902;50.816;12.828;2024-03-22T00:52:16;8.93;;;4.80;;
30080;SDS011;16902;50.816;12.828;2024-03-22T00:57:17;4.68;;;3.92;;
30080;SDS011;16902;50.816;12.828;2024-03-22T01:02:18;8.07;;;5.00;;
30080;SDS011;16902;50.816;12.828;2024-03-22T01:07:19;5.55;;;3.72;;
30080;SDS011;16902;50.816;12.828;2024-03-22T01:12:20;5.55;;;3.67;;
30080;SDS011;16902;50.816;12.828;2024-03-22T01:17:21;6.97;;;3.80;;
30080;SDS011;16902;50.816;12.828;2024-03-22T01:22:21;4.40;;;3.72;;
30080;SDS011;16902;50.816;12.828;2024-03-22T01:27:23;6.63;;;3.53;;
30080;SDS011;16902;50.816;12.828;2024-03-22T01:32:24;3.97;;;3.33;;
30080;SDS011;16902;50.816;12.828;2024-03-22T01:37:25;5.85;;;3.60;;
30080;SDS011;16902;50.816;12.828;2024-03-22T01:42:26;8.45;;;3.05;;
30080;SDS011;16902;50.816;12.828;2024-03-22T01:47:27;3.95;;;3.22;;
30080;SDS011;16902;50.816;12.828;2024-03-22T01:52:28;5.47;;;3.75;;
30080;SDS011;16902;50.816;12.828;2024-03-22T01:57:29;3.58;;;3.03;;
30080;SDS011;16902;50.816;12.828;2024-03-22T02:02:31;3.40;;;2.95;;
30080;SDS011;16902;50.816;12.828;2024-03-22T02:07:32;2.90;;;2.70;;
30080;SDS011;16902;50.816;12.828;2024-03-22T02:12:33;3.42;;;2.78;;
30080;SDS011;16902;50.816;12.828;2024-03-22T02:17:35;4.63;;;3.22;;
30080;SDS011;16902;50.816;12.828;2024-03-22T02:22:36;5.22;;;3.50;;
30080;SDS011;16902;50.816;12.828;2024-03-22T02:27:38;4.28;;;3.47;;
30080;SDS011;16902;50.816;12.828;2024-03-22T02:32:39;3.13;;;2.83;;
30080;SDS011;16902;50.816;12.828;2024-03-22T02:37:40;3.53;;;3.00;;
30080;SDS011;16902;50.816;12.828;2024-03-22T02:42:41;5.18;;;3.10;;
30080;SDS011;16902;50.816;12.828;2024-03-22T02:47:42;3.47;;;3.17;;
30080;SDS011;16902;50.816;12.828;2024-03-22T02:52:43;2.45;;;2.25;;
30080;SDS011;16902;50.816;12.828;2024-03-22T02:57:44;3.35;;;3.05;;
30080;SDS011;16902;50.816;12.828;2024-03-22T03:02:45;3.83;;;2.47;;
30080;SDS011;16902;50.816;12.828;2024-03-22T03:07:46;2.70;;;2.33;;
30080;SDS011;16902;50.816;12.828;2024-03-22T03:12:47;3.60;;;3.10;;
30080;SDS011;16902;50.816;12.828;2024-03-22T03:17:48;2.83;;;2.60;;
30080;SDS011;16902;50.816;12.828;2024-03-22T03:22:49;3.45;;;2.03;;
30080;SDS011;16902;50.816;12.828;2024-03-22T03:27:50;3.53;;;2.90;;
30080;SDS011;16902;50.816;12.828;2024-03-22T03:32:51;2.53;;;2.33;;
30080;SDS011;16902;50.816;12.828;2024-03-22T03:37:52;2.78;;;2.45;;
30080;SDS011;16902;50.816;12.828;2024-03-22T03:42:53;2.95;;;2.70;;
30080;SDS011;16902;50.816;12.828;2024-03-22T03:47:54;4.97;;;3.08;;
30080;SDS011;16902;50.816;12.828;2024-03-22T03:52:55;5.60;;;3.03;;
30080;SDS011;16902;50.816;12.828;2024-03-22T03:57:56;3.47;;;2.80;;
30080;SDS011;16902;50.816;12.828;2024-03-22T04:02:57;3.50;;;3.08;;
30080;SDS011;16902;50.816;12.828;2024-03-22T04:07:58;3.47;;;2.53;;
30080;SDS011;16902;50.816;12.828;2024-03-22T04:12:59;2.80;;;2.60;;
30080;SDS011;16902;50.816;12.828;2024-03-22T04:18:00;3.97;;;3.00;;
30080;SDS011;16902;50.816;12.828;2024-03-22T04:23:00;2.03;;;1.92;;
30080;SDS011;16902;50.816;12.828;2024-03-22T04:28:01;3.40;;;2.67;;
30080;SDS011;16902;50.816;12.828;2024-03-22T04:33:02;3.03;;;2.83;;
30080;SDS011;16902;50.816;12.828;2024-03-22T04:38:03;2.03;;;1.83;;
30080;SDS011;16902;50.816;12.828;2024-03-22T04:43:04;2.30;;;2.10;;
30080;SDS011;16902;50.816;12.828;2024-03-22T04:48:05;3.67;;;1.67;;
30080;SDS011;16902;50.816;12.828;2024-03-22T04:53:06;3.33;;;2.25;;
30080;SDS011;16902;50.816;12.828;2024-03-22T04:58:07;2.15;;;2.00;;
30080;SDS011;16902;50.816;12.828;2024-03-22T05:03:08;3.60;;;2.67;;
30080;SDS011;16902;50.816;12.828;2024-03-22T05:08:09;2.60;;;2.40;;
30080;SDS011;16902;50.816;12.828;2024-03-22T05:13:13;4.93;;;2.33;;
30080;SDS011;16902;50.816;12.828;2024-03-22T05:18:14;3.30;;;2.50;;
30080;SDS011;16902;50.816;12.828;2024-03-22T05:23:15;6.47;;;2.97;;
30080;SDS011;16902;50.816;12.828;2024-03-22T05:28:19;4.07;;;3.22;;
30080;SDS011;16902;50.816;12.828;2024-03-22T05:33:19;2.08;;;1.98;;
30080;SDS011;16902;50.816;12.828;2024-03-22T05:38:20;3.28;;;2.90;;
30080;SDS011;16902;50.816;12.828;2024-03-22T05:43:21;5.28;;;2.45;;
30080;SDS011;16902;50.816;12.828;2024-03-22T05:48:22;3.17;;;2.70;;
30080;SDS011;16902;50.816;12.828;2024-03-22T05:53:23;2.92;;;2.45;;
30080;SDS011;16902;50.816;12.828;2024-03-22T05:58:24;3.20;;;2.90;;
30080;SDS011;16902;50.816;12.828;2024-03-22T06:03:25;2.63;;;2.47;;
30080;SDS011;16902;50.816;12.828;2024-03-22T06:08:26;3.00;;;2.72;;
30080;SDS011;16902;50.816;12.828;2024-03-22T06:13:27;2.28;;;2.13;;
30080;SDS011;16902;50.816;12.828;2024-03-22T06:18:28;4.22;;;3.25;;
30080;SDS011;16902;50.816;12.828;2024-03-22T06:23:29;3.05;;;2.75;;
30080;SDS011;16902;50.816;12.828;2024-03-22T06:28:30;4.97;;;3.30;;
30080;SDS011;16902;50.816;12.828;2024-03-22T06:33:31;3.50;;;3.17;;
30080;SDS011;16902;50.816;12.828;2024-03-22T06:38:32;4.45;;;2.88;;
30080;SDS011;16902;50.816;12.828;2024-03-22T06:43:33;3.45;;;3.15;;
30080;SDS011;16902;50.816;12.828;2024-03-22T06:48:34;3.15;;;2.88;;
30080;SDS011;16902;50.816;12.828;2024-03-22T06:53:35;3.45;;;3.15;;
30080;SDS011;16902;50.816;12.828;2024-03-22T06:58:35;3.72;;;3.35;;
30080;SDS011;16902;50.816;12.828;2024-03-22T07:03:37;3.58;;;3.28;;
30080;SDS011;16902;50.816;12.828;2024-03-22T07:08:38;3.40;;;3.20;;
30080;SDS011;16902;50.816;12.828;2024-03-22T07:13:39;5.82;;;3.38;;
30080;SDS011;16902;50.816;12.828;2024-03-22T07:18:40;3.40;;;3.10;;
30080;SDS011;16902;50.816;12.828;2024-03-22T07:23:41;4.15;;;3.72;;
30080;SDS011;16902;50.816;12.828;2024-03-22T07:28:42;6.68;;;4.10;;
30080;SDS011;16902;50.816;12.828;2024-03-22T07:33:42;3.90;;;3.60;;
30080;SDS011;16902;50.816;12.828;2024-03-22T07:38:43;4.50;;;4.15;;
30080;SDS011;16902;50.816;12.828;2024-03-22T07:43:44;4.95;;;4.60;;
30080;SDS011;16902;50.816;12.828;2024-03-22T07:48:45;6.00;;;5.55;;
30080;SDS011;16902;50.816;12.828;2024-03-22T07:53:46;5.47;;;5.07;;
30080;SDS011;16902;50.816;12.828;2024-03-22T07:58:47;6.75;;;6.00;;
30080;SDS011;16902;50.816;12.828;2024-03-22T08:03:48;6.32;;;5.93;;
30080;SDS011;16902;50.816;12.828;2024-03-22T08:08:50;7.60;;;7.10;;
30080;SDS011;16902;50.816;12.828;2024-03-22T08:13:51;6.68;;;6.28;;
30080;SDS011;16902;50.816;12.828;2024-03-22T08:18:51;6.72;;;6.07;;
30080;SDS011;16902;50.816;12.828;2024-03-22T08:23:52;7.45;;;6.75;;
30080;SDS011;16902;50.816;12.828;2024-03-22T08:28:53;7.90;;;7.50;;
30080;SDS011;16902;50.816;12.828;2024-03-22T08:33:54;9.05;;;8.13;;
30080;SDS011;16902;50.816;12.828;2024-03-22T08:38:56;9.27;;;8.63;;
30080;SDS011;16902;50.816;12.828;2024-03-22T08:43:57;8.65;;;8.10;;
30080;SDS011;16902;50.816;12.828;2024-03-22T08:48:58;9.90;;;7.68;;
30080;SDS011;16902;50.816;12.828;2024-03-22T08:53:59;9.00;;;8.50;;
30080;SDS011;16902;50.816;12.828;2024-03-22T08:59:01;8.45;;;7.95;;
30080;SDS011;16902;50.816;12.828;2024-03-22T09:04:02;10.02;;;9.25;;
30080;SDS011;16902;50.816;12.828;2024-03-22T09:09:04;10.20;;;8.73;;
30080;SDS011;16902;50.816;12.828;2024-03-22T09:14:05;10.48;;;9.60;;
30080;SDS011;16902;50.816;12.828;2024-03-22T09:19:06;9.70;;;9.20;;
30080;SDS011;16902;50.816;12.828;2024-03-22T09:24:07;9.85;;;9.15;;
30080;SDS011;16902;50.816;12.828;2024-03-22T09:29:08;10.30;;;9.50;;
30080;SDS011;16902;50.816;12.828;2024-03-22T09:34:08;12.18;;;10.98;;
30080;SDS011;16902;50.816;12.828;2024-03-22T09:39:09;10.73;;;10.05;;
30080;SDS011;16902;50.816;12.828;2024-03-22T09:44:12;10.73;;;9.93;;
30080;SDS011;16902;50.816;12.828;2024-03-22T09:49:15;11.55;;;10.52;;
30080;SDS011;16902;50.816;12.828;2024-03-22T09:54:17;11.15;;;10.18;;
30080;SDS011;16902;50.816;12.828;2024-03-22T09:59:18;10.13;;;9.43;;
30080;SDS011;16902;50.816;12.828;2024-03-22T10:04:18;11.57;;;10.77;;
30080;SDS011;16902;50.816;12.828;2024-03-22T10:09:27;12.38;;;11.55;;
30080;SDS011;16902;50.816;12.828;2024-03-22T10:14:30;12.45;;;11.60;;
30080;SDS011;16902;50.816;12.828;2024-03-22T10:19:32;12.32;;;11.52;;
30080;SDS011;16902;50.816;12.828;2024-03-22T10:24:33;11.70;;;11.00;;
30080;SDS011;16902;50.816;12.828;2024-03-22T10:29:35;12.98;;;12.23;;
30080;SDS011;16902;50.816;12.828;2024-03-22T10:34:36;12.57;;;11.88;;
30080;SDS011;16902;50.816;12.828;2024-03-22T10:39:38;13.23;;;12.25;;
30080;SDS011;16902;50.816;12.828;2024-03-22T10:44:40;13.70;;;12.63;;
30080;SDS011;16902;50.816;12.828;2024-03-22T10:49:41;13.10;;;12.30;;
30080;SDS011;16902;50.816;12.828;2024-03-22T10:54:46;12.15;;;11.35;;
30080;SDS011;16902;50.816;12.828;2024-03-22T10:59:48;13.38;;;12.40;;
30080;SDS011;16902;50.816;12.828;2024-03-22T11:04:54;15.13;;;13.55;;
30080;SDS011;16902;50.816;12.828;2024-03-22T11:09:57;14.15;;;13.23;;
30080;SDS011;16902;50.816;12.828;2024-03-22T11:15:01;15.18;;;14.30;;
30080;SDS011;16902;50.816;12.828;2024-03-22T11:20:02;15.32;;;14.50;;
30080;SDS011;16902;50.816;12.828;2024-03-22T11:25:03;15.35;;;14.25;;
30080;SDS011;16902;50.816;12.828;2024-03-22T11:30:04;14.95;;;14.15;;
30080;SDS011;16902;50.816;12.828;2024-03-22T11:35:06;16.08;;;15.05;;
30080;SDS011;16902;50.816;12.828;2024-03-22T11:40:10;15.65;;;14.65;;
30080;SDS011;16902;50.816;12.828;2024-03-22T11:45:13;15.38;;;14.52;;
30080;SDS011;16902;50.816;12.828;2024-03-22T11:50:16;15.93;;;14.82;;
30080;SDS011;16902;50.816;12.828;2024-03-22T11:55:17;16.20;;;15.02;;
30080;SDS011;16902;50.816;12.828;2024-03-22T12:00:18;15.07;;;14.15;;
30080;SDS011;16902;50.816;12.828;2024-03-22T12:05:20;16.27;;;15.25;;
30080;SDS011;16902;50.816;12.828;2024-03-22T12:10:21;15.88;;;15.00;;
30080;SDS011;16902;50.816;12.828;2024-03-22T12:15:22;17.38;;;16.13;;
30080;SDS011;16902;50.816;12.828;2024-03-22T12:20:23;16.75;;;15.65;;
30080;SDS011;16902;50.816;12.828;2024-03-22T12:25:24;16.17;;;15.18;;
30080;SDS011;16902;50.816;12.828;2024-03-22T12:30:25;17.08;;;15.55;;
30080;SDS011;16902;50.816;12.828;2024-03-22T12:35:26;15.73;;;14.93;;
30080;SDS011;16902;50.816;12.828;2024-03-22T12:40:27;15.80;;;14.75;;
30080;SDS011;16902;50.816;12.828;2024-03-22T12:45:29;15.88;;;14.73;;
30080;SDS011;16902;50.816;12.828;2024-03-22T12:50:30;15.20;;;14.40;;
30080;SDS011;16902;50.816;12.828;2024-03-22T12:55:31;15.73;;;14.52;;
30080;SDS011;16902;50.816;12.828;2024-03-22T13:00:33;15.05;;;14.23;;
30080;SDS011;16902;50.816;12.828;2024-03-22T13:05:34;15.68;;;14.77;;
30080;SDS011;16902;50.816;12.828;2024-03-22T13:10:35;14.13;;;13.13;;
30080;SDS011;16902;50.816;12.828;2024-03-22T13:15:36;14.02;;;12.98;;
30080;SDS011;16902;50.816;12.828;2024-03-22T13:20:39;14.27;;;13.48;;
30080;SDS011;16902;50.816;12.828;2024-03-22T13:25:40;13.68;;;12.68;;
30080;SDS011;16902;50.816;12.828;2024-03-22T13:30:41;13.02;;;12.30;;
30080;SDS011;16902;50.816;12.828;2024-03-22T13:35:44;14.93;;;13.80;;
30080;SDS011;16902;50.816;12.828;2024-03-22T13:40:52;14.25;;;13.25;;
30080;SDS011;16902;50.816;12.828;2024-03-22T13:45:54;14.40;;;13.43;;
30080;SDS011;16902;50.816;12.828;2024-03-22T13:50:55;15.48;;;14.40;;
30080;SDS011;16902;50.816;12.828;2024-03-22T13:55:57;13.18;;;12.38;;
30080;SDS011;16902;50.816;12.828;2024-03-22T14:00:58;14.20;;;13.15;;
30080;SDS011;16902;50.816;12.828;2024-03-22T14:06:00;13.35;;;12.55;;
30080;SDS011;16902;50.816;12.828;2024-03-22T14:11:03;14.18;;;13.15;;
30080;SDS011;16902;50.816;12.828;2024-03-22T14:16:03;14.57;;;13.57;;
30080;SDS011;16902;50.816;12.828;2024-03-22T14:21:07;14.40;;;13.45;;
30080;SDS011;16902;50.816;12.828;2024-03-22T14:26:08;14.77;;;13.77;;
30080;SDS011;16902;50.816;12.828;2024-03-22T14:31:10;14.07;;;13.07;;
30080;SDS011;16902;50.816;12.828;2024-03-22T14:36:12;13.25;;;12.50;;
30080;SDS011;16902;50.816;12.828;2024-03-22T14:41:13;13.07;;;12.27;;
30080;SDS011;16902;50.816;12.828;2024-03-22T14:46:14;12.70;;;11.70;;
30080;SDS011;16902;50.816;12.828;2024-03-22T14:51:16;13.23;;;12.20;;
30080;SDS011;16902;50.816;12.828;2024-03-22T14:56:17;13.02;;;12.18;;
30080;SDS011;16902;50.816;12.828;2024-03-22T15:01:18;12.90;;;11.95;;
30080;SDS011;16902;50.816;12.828;2024-03-22T15:06:19;14.20;;;11.93;;
30080;SDS011;16902;50.816;12.828;2024-03-22T15:11:20;12.20;;;11.32;;
30080;SDS011;16902;50.816;12.828;2024-03-22T15:16:21;12.15;;;11.50;;
30080;SDS011;16902;50.816;12.828;2024-03-22T15:21:23;12.75;;;12.05;;
30080;SDS011;16902;50.816;12.828;2024-03-22T15:26:24;13.48;;;12.52;;
30080;SDS011;16902;50.816;12.828;2024-03-22T15:31:25;13.05;;;12.23;;
30080;SDS011;16902;50.816;12.828;2024-03-22T15:36:26;13.30;;;12.45;;
30080;SDS011;16902;50.816;12.828;2024-03-22T15:41:27;12.02;;;11.40;;
30080;SDS011;16902;50.816;12.828;2024-03-22T15:46:28;12.50;;;11.70;;
30080;SDS011;16902;50.816;12.828;2024-03-22T15:51:29;12.80;;;11.98;;
30080;SDS011;16902;50.816;12.828;2024-03-22T15:56:30;12.05;;;11.15;;
30080;SDS011;16902;50.816;12.828;2024-03-22T16:01:31;12.23;;;11.43;;
30080;SDS011;16902;50.816;12.828;2024-03-22T16:06:32;12.15;;;11.35;;
30080;SDS011;16902;50.816;12.828;2024-03-22T16:11:33;11.07;;;10.38;;
30080;SDS011;16902;50.816;12.828;2024-03-22T16:16:34;11.20;;;10.18;;
30080;SDS011;16902;50.816;12.828;2024-03-22T16:21:35;11.60;;;10.75;;
30080;SDS011;16902;50.816;12.828;2024-03-22T16:26:36;12.07;;;11.23;;
30080;SDS011;16902;50.816;12.828;2024-03-22T16:31:37;11.35;;;10.45;;
30080;SDS011;16902;50.816;12.828;2024-03-22T16:36:38;10.93;;;10.32;;
30080;SDS011;16902;50.816;12.828;2024-03-22T16:41:39;11.68;;;10.52;;
30080;SDS011;16902;50.816;12.828;2024-03-22T16:46:40;10.75;;;10.05;;
30080;SDS011;16902;50.816;12.828;2024-03-22T16:51:41;9.25;;;8.75;;
30080;SDS011;16902;50.816;12.828;2024-03-22T16:56:42;9.65;;;8.57;;
30080;SDS011;16902;50.816;12.828;2024-03-22T17:01:43;7.70;;;6.93;;
30080;SDS011;16902;50.816;12.828;2024-03-22T17:06:44;6.05;;;5.60;;
30080;SDS011;16902;50.816;12.828;2024-03-22T17:11:44;8.80;;;6.20;;
30080;SDS011;16902;50.816;12.828;2024-03-22T17:16:45;6.88;;;6.30;;
30080;SDS011;16902;50.816;12.828;2024-03-22T17:21:50;7.07;;;6.38;;
30080;SDS011;16902;50.816;12.828;2024-03-22T17:26:51;6.22;;;5.82;;
30080;SDS011;16902;50.816;12.828;2024-03-22T17:31:52;6.25;;;5.75;;
30080;SDS011;16902;50.816;12.828;2024-03-22T17:36:53;5.88;;;5.47;;
30080;SDS011;16902;50.816;12.828;2024-03-22T17:41:54;6.63;;;6.03;;
30080;SDS011;16902;50.816;12.828;2024-03-22T17:46:55;8.32;;;6.28;;
30080;SDS011;16902;50.816;12.828;2024-03-22T17:51:56;6.68;;;5.70;;
30080;SDS011;16902;50.816;12.828;2024-03-22T17:56:57;6.57;;;5.60;;
30080;SDS011;16902;50.816;12.828;2024-03-22T18:01:58;5.60;;;5.00;;
30080;SDS011;16902;50.816;12.828;2024-03-22T18:06:59;5.43;;;4.93;;
30080;SDS011;16902;50.816;12.828;2024-03-22T18:12:00;4.93;;;4.43;;
30080;SDS011;16902;50.816;12.828;2024-03-22T18:17:01;5.10;;;4.38;;
30080;SDS011;16902;50.816;12.828;2024-03-22T18:22:04;6.28;;;5.25;;
30080;SDS011;16902;50.816;12.828;2024-03-22T18:27:05;5.15;;;4.65;;
30080;SDS011;16902;50.816;12.828;2024-03-22T18:32:09;5.30;;;4.90;;
30080;SDS011;16902;50.816;12.828;2024-03-22T18:37:10;5.65;;;4.40;;
30080;SDS011;16902;50.816;12.828;2024-03-22T18:42:12;4.63;;;4.32;;
30080;SDS011;16902;50.816;12.828;2024-03-22T18:47:13;5.15;;;4.68;;
30080;SDS011;16902;50.816;12.828;2024-03-22T18:52:13;5.35;;;4.85;;
30080;SDS011;16902;50.816;12.828;2024-03-22T18:57:14;5.32;;;4.75;;
30080;SDS011;16902;50.816;12.828;2024-03-22T19:02:15;6.13;;;5.32;;
30080;SDS011;16902;50.816;12.828;2024-03-22T19:07:16;5.70;;;5.20;;
30080;SDS011;16902;50.816;12.828;2024-03-22T19:12:19;4.45;;;4.05;;
30080;SDS011;16902;50.816;12.828;2024-03-22T19:17:20;5.05;;;4.57;;
30080;SDS011;16902;50.816;12.828;2024-03-22T19:22:22;4.32;;;3.95;;
30080;SDS011;16902;50.816;12.828;2024-03-22T19:27:23;4.50;;;4.07;;
30080;SDS011;16902;50.816;12.828;2024-03-22T19:32:27;4.00;;;3.70;;
30080;SDS011;16902;50.816;12.828;2024-03-22T19:37:28;4.90;;;3.53;;
30080;SDS011;16902;50.816;12.828;2024-03-22T19:42:29;5.15;;;4.65;;
30080;SDS011;16902;50.816;12.828;2024-03-22T19:47:30;4.03;;;3.67;;
30080;SDS011;16902;50.816;12.828;2024-03-22T19:52:31;4.78;;;4.38;;
30080;SDS011;16902;50.816;12.828;2024-03-22T19:57:32;5.85;;;4.75;;
30080;SDS011;16902;50.816;12.828;2024-03-22T20:02:33;5.00;;;4.53;;
30080;SDS011;16902;50.816;12.828;2024-03-22T20:07:34;4.60;;;4.20;;
30080;SDS011;16902;50.816;12.828;2024-03-22T20:12:35;4.97;;;4.57;;
30080;SDS011;16902;50.816;12.828;2024-03-22T20:17:36;4.28;;;3.90;;
30080;SDS011;16902;50.816;12.828;2024-03-22T20:22:37;7.28;;;4.78;;
30080;SDS011;16902;50.816;12.828;2024-03-22T20:27:39;4.82;;;4.40;;
30080;SDS011;16902;50.816;12.828;2024-03-22T20:32:40;4.50;;;4.20;;
30080;SDS011;16902;50.816;12.828;2024-03-22T20:37:41;5.53;;;4.97;;
